Latest Coastal Weather Observations for Port Kembla Harbour

IDN60701

Issued at 8:31 am EST Monday 31 August 2015 (issued every 10 minutes, with the page automatically refreshed every 10 minutes)

About coastal observations | Map of coastal stations | Coastal observations for NSW | Marine services | Other Formats
Station Details ID: 068253 Name: PORT KEMBLA NTC AWS Lat: -34.47 Lon: 150.91 Height: 0.0 m
Data from the previous 72 hours. | See also: Recent months for locations in New South Wales
Date/Time
EST
Temp

°C
Wind Pressure Rain
since 9am
mm
Weather Cloud Vis
km
Sea
Height
m
Swell
Dir
 
Speed
knots
Gust
knots
hPa Trend Height
m
Period
s
Dir
31/08:30am 12.6 WSW 7 12 1016.9 - - - - - - - - -
31/08:00am 12.1 WSW 8 11 1016.9 - - - - - - - - -
31/07:30am 12.0 WSW 5 9 1016.9 - - - - - - - - -
31/07:00am 10.9 W 5 6 1016.9 - - - - - - - - -
31/06:30am 10.6 W 7 9 1016.7 - - - - - - - - -
31/06:00am 9.0 WSW 4 5 1016.5 - - - - - - - - -
31/05:30am 9.7 WSW 5 7 1016.4 - - - - - - - - -
31/05:00am 10.7 WSW 7 9 1016.3 - - - - - - - - -
31/04:30am 11.3 WSW 6 7 1016.2 - - - - - - - - -
31/04:00am 11.9 SW 5 9 1016.3 - - - - - - - - -
31/03:30am 11.7 WSW 7 10 1016.4 - - - - - - - - -
31/03:00am 12.4 WSW 5 8 1016.6 - - - - - - - - -
31/02:30am 12.1 WSW 4 9 1017.1 - - - - - - - - -
31/02:00am 12.7 SW 5 9 1017.4 - - - - - - - - -
31/01:30am 12.2 SW 5 7 1017.9 - - - - - - - - -
31/01:00am 12.6 SW 6 9 1018.0 - - - - - - - - -
31/12:30am 13.1 WSW 8 13 1018.2 - - - - - - - - -
31/12:00am 13.3 SW 7 11 1018.2 - - - - - - - - -
 
Date/Time
EST
Temp

°C
Wind Pressure Rain
since 9am
mm
Weather Cloud Vis
km
Sea
Height
m
Swell
Dir
 
Speed
knots
Gust
knots
hPa Trend Height
m
Period
s
Dir
30/11:30pm 13.0 WSW 4 6 1018.2 - - - - - - - - -
30/11:00pm 13.1 W 7 8 1018.3 - - - - - - - - -
30/10:30pm 13.3 W 6 7 1018.4 - - - - - - - - -
30/10:00pm 13.6 W 6 8 1018.5 - - - - - - - - -
30/09:30pm 14.0 W 9 12 1018.4 - - - - - - - - -
30/09:00pm 13.7 W 6 10 1018.6 - - - - - - - - -
30/08:30pm 13.8 WSW 7 10 1018.6 - - - - - - - - -
30/08:00pm 13.8 WSW 7 10 1018.4 - - - - - - - - -
30/07:30pm 13.8 WSW 7 11 1018.4 - - - - - - - - -
30/07:00pm 14.2 SW 8 12 1018.2 - - - - - - - - -
30/06:30pm 14.8 SW 8 13 1018.0 - - - - - - - - -
30/06:00pm 15.2 SSW 6 13 1017.5 - - - - - - - - -
30/05:30pm 15.3 S 6 12 1017.3 - - - - - - - - -
30/05:00pm 15.4 S 6 12 1017.2 - - - - - - - - -
30/04:30pm 15.3 S 6 12 1017.0 - - - - - - - - -
30/04:00pm 15.3 SSE 8 14 1017.1 - - - - - - - - -
30/03:30pm 14.9 SSE 8 15 1017.2 - - - - - - - - -
30/03:00pm 15.0 S 8 15 1017.3 - - - - - - - - -
30/02:30pm 15.6 S 9 17 1017.4 - - - - - - - - -
30/02:00pm 15.9 SSE 7 13 1017.5 - - - - - - - - -
30/01:30pm 15.5 S 8 16 1017.5 - - - - - - - - -
30/01:00pm 15.7 S 7 15 1017.9 - - - - - - - - -
30/12:30pm 16.0 S 7 14 1018.2 - - - - - - - - -
30/12:00pm 15.5 S 6 12 1018.7 - - - - - - - - -
30/11:30am 15.5 S 7 13 1019.2 - - - - - - - - -
30/11:00am 15.5 S 7 15 1019.3 - - - - - - - - -
30/10:30am 15.1 S 5 11 1019.5 - - - - - - - - -
30/10:00am 14.6 SW 8 15 1019.7 - - - - - - - - -
30/09:30am 13.8 WSW 8 11 1019.6 - - - - - - - - -
30/09:00am 13.5 WSW 8 11 1019.8 - - - - - - - - -
30/08:30am 13.0 WSW 6 10 1019.7 - - - - - - - - -
30/08:00am 12.2 WSW 7 9 1019.6 - - - - - - - - -
30/07:30am 11.8 WSW 8 10 1019.4 - - - - - - - - -
30/07:00am 11.0 WSW 7 9 1019.1 - - - - - - - - -
30/06:30am 10.2 W 7 9 1018.9 - - - - - - - - -
30/06:00am 10.5 W 7 9 1018.9 - - - - - - - - -
30/05:30am 10.5 WSW 8 11 1018.7 - - - - - - - - -
30/05:00am 10.3 WSW 7 10 1018.7 - - - - - - - - -
30/04:30am 10.4 WSW 9 11 1018.6 - - - - - - - - -
30/04:00am 10.1 WSW 9 11 1018.5 - - - - - - - - -
30/03:30am 10.5 WSW 9 12 1018.6 - - - - - - - - -
30/03:00am 10.3 WSW 9 10 1018.9 - - - - - - - - -
30/02:30am 10.8 WSW 10 12 1019.1 - - - - - - - - -
30/02:00am 10.8 WSW 11 13 1019.3 - - - - - - - - -
30/01:30am 10.9 WSW 9 11 1019.5 - - - - - - - - -
30/01:00am 11.1 W 8 10 1019.7 - - - - - - - - -
30/12:30am 11.1 W 9 10 1019.8 - - - - - - - - -
30/12:00am 11.3 W 9 10 1019.9 - - - - - - - - -
 
Date/Time
EST
Temp

°C
Wind Pressure Rain
since 9am
mm
Weather Cloud Vis
km
Sea
Height
m
Swell
Dir
 
Speed
knots
Gust
knots
hPa Trend Height
m
Period
s
Dir
29/11:30pm 11.6 W 9 12 1019.9 - - - - - - - - -
29/11:00pm 11.7 W 9 11 1020.2 - - - - - - - - -
29/10:30pm 12.0 W 9 11 1020.3 - - - - - - - - -
29/10:00pm 12.3 W 8 10 1020.3 - - - - - - - - -
29/09:30pm 12.9 WSW 11 15 1020.3 - - - - - - - - -
29/09:00pm 13.3 WSW 11 16 1020.2 - - - - - - - - -
29/08:30pm 13.5 WSW 7 11 1020.0 - - - - - - - - -
29/08:00pm 14.0 WSW 9 12 1019.6 - - - - - - - - -
29/07:30pm 14.2 W 7 10 1019.3 - - - - - - - - -
29/07:00pm 14.5 W 9 12 1018.9 - - - - - - - - -
29/06:30pm 15.2 W 9 11 1018.6 - - - - - - - - -
29/06:00pm 15.9 W 7 9 1018.2 - - - - - - - - -
29/05:30pm 16.4 WSW 10 13 1017.9 - - - - - - - - -
29/05:00pm 17.0 WSW 11 15 1017.5 - - - - - - - - -
29/04:30pm 17.6 WSW 9 13 1017.4 - - - - - - - - -
29/04:00pm 17.6 W 12 19 1017.3 - - - - - - - - -
29/03:30pm 17.8 WNW 11 19 1017.3 - - - - - - - - -
29/03:00pm 17.8 WNW 12 18 1017.3 - - - - - - - - -
29/02:30pm 17.6 W 9 15 1017.5 - - - - - - - - -
29/02:00pm 17.5 W 8 12 1017.7 - - - - - - - - -
29/01:30pm 17.0 WNW 7 13 1018.2 - - - - - - - - -
29/01:00pm 16.6 W 8 13 1018.7 - - - - - - - - -
29/12:30pm 16.1 WSW 12 19 1019.3 - - - - - - - - -
29/12:00pm 16.4 WSW 11 18 1019.8 - - - - - - - - -
29/11:30am 15.7 SW 8 13 1020.3 - - - - - - - - -
29/11:00am 15.3 SW 8 12 1020.7 - - - - - - - - -
29/10:30am 15.1 W 7 12 1020.9 - - - - - - - - -
29/10:00am 14.7 WSW 6 14 1021.2 - - - - - - - - -
29/09:30am 14.3 W 6 11 1021.5 - - - - - - - - -
29/09:00am 13.9 W 7 12 1021.6 - - - - - - - - -
29/08:30am 13.6 WSW 5 7 1021.7 - - - - - - - - -
29/08:00am 13.3 WNW 4 7 1021.9 - - - - - - - - -
29/07:30am 13.0 WNW 7 10 1021.7 - - - - - - - - -
29/07:00am 12.0 WNW 8 10 1021.7 - - - - - - - - -
29/06:30am 12.7 WNW 9 13 1021.4 - - - - - - - - -
29/06:00am 12.1 SW 2 4 1021.2 - - - - - - - - -
29/05:30am 12.9 WNW 7 12 1021.0 - - - - - - - - -
29/05:00am 12.5 W 2 4 1021.0 - - - - - - - - -
29/04:30am 12.4 SW 1 3 1020.8 - - - - - - - - -
29/04:00am 12.4 W 2 4 1021.0 - - - - - - - - -
29/03:30am 11.9 SW 2 3 1020.9 - - - - - - - - -
29/03:00am 11.8 SW 2 3 1021.3 - - - - - - - - -
29/02:30am 12.2 W 4 6 1021.5 - - - - - - - - -
29/02:00am 11.7 WSW 3 4 1021.7 - - - - - - - - -
29/01:30am 12.2 WSW 3 4 1022.0 - - - - - - - - -
29/01:00am 12.9 W 3 4 1022.1 - - - - - - - - -
29/12:30am 13.1 WSW 3 4 1022.1 - - - - - - - - -
29/12:00am 13.6 WSW 2 4 1022.1 - - - - - - - - -
 
Date/Time
EST
Temp

°C
Wind Pressure Rain
since 9am
mm
Weather Cloud Vis
km
Sea
Height
m
Swell
Dir
 
Speed
knots
Gust
knots
hPa Trend Height
m
Period
s
Dir
28/11:30pm 13.6 SSW 3 4 1022.2 - - - - - - - - -
28/11:00pm 13.7 SSW 2 4 1022.3 - - - - - - - - -
28/10:30pm 13.7 SSW 2 4 1022.3 - - - - - - - - -
28/10:00pm 13.7 SW 2 3 1022.2 - - - - - - - - -
28/09:30pm 13.7 SW 2 3 1022.3 - - - - - - - - -
28/09:00pm 13.6 SW 4 5 1022.2 - - - - - - - - -
28/08:30pm 13.7 SW 6 8 1022.1 - - - - - - - - -
28/08:00pm 14.3 S 4 7 1021.7 - - - - - - - - -
28/07:30pm 14.3 WSW 2 4 1021.5 - - - - - - - - -
28/07:00pm 14.3 WSW 6 8 1021.2 - - - - - - - - -

Other Formats:

Comma delimited format used in spreadsheet applications
http://www.bom.gov.au/fwo/IDN60701/IDN60701.95745.axf

JavaScript Object Notation format (JSON) in row-major order
http://www.bom.gov.au/fwo/IDN60701/IDN60701.95745.json